createdAt,value
2019-05-20T00:00:16.408Z,13.69
2019-05-20T00:02:45.680Z,13.58
2019-05-20T00:05:14.866Z,13.63
2019-05-20T00:07:44.019Z,13.54
2019-05-20T00:10:13.270Z,13.46
2019-05-20T00:12:42.668Z,13.30
2019-05-20T00:15:11.817Z,13.39
2019-05-20T00:17:40.970Z,13.37
2019-05-20T00:20:10.387Z,13.38
2019-05-20T00:22:39.590Z,13.34
2019-05-20T00:25:09.570Z,13.28
2019-05-20T00:27:38.774Z,13.34
2019-05-20T00:30:09.244Z,13.33
2019-05-20T00:32:41.699Z,13.39
2019-05-20T00:35:09.429Z,13.31
2019-05-20T00:37:38.632Z,13.32
2019-05-20T00:40:08.110Z,13.34
2019-05-20T00:42:37.333Z,13.41
2019-05-20T00:45:06.794Z,13.35
2019-05-20T00:47:36.029Z,13.23
2019-05-20T00:50:05.521Z,13.08
2019-05-20T00:52:34.678Z,13.11
2019-05-20T00:55:05.675Z,13.04
2019-05-20T00:57:34.867Z,13.01
2019-05-20T01:00:05.775Z,13.19
2019-05-20T01:02:34.953Z,13.24
2019-05-20T01:05:04.214Z,13.21
2019-05-20T01:07:33.354Z,13.07
2019-05-20T01:10:02.531Z,12.92
2019-05-20T01:12:31.733Z,12.93
2019-05-20T01:15:00.981Z,12.96
2019-05-20T01:17:30.134Z,12.99
2019-05-20T01:19:59.321Z,12.92
2019-05-20T01:22:28.508Z,12.81
2019-05-20T01:24:57.904Z,12.73
2019-05-20T01:27:27.060Z,12.67
2019-05-20T01:29:56.298Z,12.70
2019-05-20T01:32:25.459Z,12.71
2019-05-20T01:34:54.710Z,12.60
2019-05-20T01:37:23.900Z,12.59
2019-05-20T01:39:53.170Z,12.53
2019-05-20T01:42:22.522Z,12.63
2019-05-20T01:44:51.712Z,12.61
2019-05-20T01:47:20.869Z,12.56
2019-05-20T01:49:50.142Z,12.63
2019-05-20T01:52:19.286Z,12.53
2019-05-20T01:54:48.566Z,12.52
2019-05-20T01:57:17.793Z,12.52
2019-05-20T01:59:47.010Z,12.72
2019-05-20T02:02:16.180Z,12.78
2019-05-20T02:04:46.496Z,12.85
2019-05-20T02:07:15.844Z,12.75
2019-05-20T02:09:46.578Z,12.85
2019-05-20T02:12:15.774Z,12.90
2019-05-20T02:14:57.131Z,12.96
2019-05-20T02:17:26.299Z,13.02
2019-05-20T02:19:55.472Z,13.13
2019-05-20T02:22:24.728Z,13.09
2019-05-20T02:24:54.922Z,13.11
2019-05-20T02:27:25.228Z,13.18
2019-05-20T02:29:55.436Z,13.07
2019-05-20T02:32:24.636Z,13.00
2019-05-20T02:34:53.885Z,12.92
2019-05-20T02:37:23.119Z,12.91
2019-05-20T02:39:52.265Z,12.96
2019-05-20T02:42:21.452Z,12.97
2019-05-20T02:44:50.608Z,13.01
2019-05-20T02:47:19.812Z,13.01
2019-05-20T02:49:49.003Z,12.88
2019-05-20T02:52:18.223Z,12.93
2019-05-20T02:54:47.529Z,13.01
2019-05-20T02:57:16.751Z,12.98
2019-05-20T02:59:45.961Z,13.01
2019-05-20T03:02:15.235Z,12.93
2019-05-20T03:04:44.450Z,12.97
2019-05-20T03:07:14.735Z,12.96
2019-05-20T03:09:43.961Z,12.97
2019-05-20T03:12:13.263Z,12.95
2019-05-20T03:14:42.427Z,13.01
2019-05-20T03:17:11.611Z,13.05
2019-05-20T03:19:40.820Z,12.96
2019-05-20T03:22:09.988Z,13.06
2019-05-20T03:24:39.197Z,13.06
2019-05-20T03:27:08.625Z,13.04
2019-05-20T03:29:37.845Z,13.01
2019-05-20T03:32:08.845Z,12.93
2019-05-20T03:34:46.722Z,13.03
2019-05-20T03:37:09.050Z,13.01
2019-05-20T03:39:38.260Z,12.99
2019-05-20T03:42:09.233Z,13.01
2019-05-20T03:44:40.375Z,12.93
2019-05-20T03:47:09.655Z,12.98
2019-05-20T03:49:38.916Z,12.95
2019-05-20T03:52:08.264Z,12.93
2019-05-20T03:54:37.571Z,12.99
2019-05-20T03:57:06.874Z,12.96
2019-05-20T03:59:36.063Z,12.85
2019-05-20T04:02:05.284Z,12.74
2019-05-20T04:04:34.439Z,12.68
2019-05-20T04:07:03.634Z,12.82
2019-05-20T04:09:32.839Z,12.84
2019-05-20T04:12:02.049Z,12.78
2019-05-20T04:14:31.349Z,12.74
2019-05-20T04:17:00.693Z,12.85
2019-05-20T04:19:29.950Z,12.88
2019-05-20T04:21:59.171Z,12.95
2019-05-20T04:24:29.442Z,13.01
2019-05-20T04:27:02.281Z,13.05
2019-05-20T04:29:31.547Z,13.08
2019-05-20T04:32:00.737Z,13.08
2019-05-20T04:34:29.975Z,13.05
2019-05-20T04:36:59.282Z,13.06
2019-05-20T04:39:29.654Z,13.11
2019-05-20T04:41:58.856Z,13.12
2019-05-20T04:44:28.018Z,13.09
2019-05-20T04:46:58.132Z,13.13
2019-05-20T04:49:27.504Z,13.11
2019-05-20T04:51:57.041Z,13.18
2019-05-20T04:54:26.204Z,13.18
2019-05-20T04:56:55.358Z,13.21
2019-05-20T04:59:24.646Z,13.22
2019-05-20T05:01:53.846Z,13.26
2019-05-20T05:04:23.010Z,13.32
2019-05-20T05:06:52.169Z,13.31
2019-05-20T05:09:21.353Z,13.35
2019-05-20T05:11:50.511Z,13.40
2019-05-20T05:14:19.789Z,13.39
2019-05-20T05:16:48.937Z,13.34
2019-05-20T05:19:18.144Z,13.21
2019-05-20T05:21:47.311Z,13.35
2019-05-20T05:24:16.501Z,13.43
2019-05-20T05:26:47.812Z,13.42
2019-05-20T05:29:16.579Z,13.30
2019-05-20T05:31:45.725Z,13.38
2019-05-20T05:34:14.931Z,13.49
2019-05-20T05:36:44.129Z,13.49
2019-05-20T05:39:14.852Z,13.55
2019-05-20T05:41:44.060Z,13.70
2019-05-20T05:44:13.482Z,13.66
2019-05-20T05:46:44.483Z,13.70
2019-05-20T05:49:13.792Z,13.65
2019-05-20T05:51:43.129Z,13.62
2019-05-20T05:54:12.325Z,13.58
2019-05-20T05:56:41.525Z,13.68
2019-05-20T05:59:10.811Z,13.49
2019-05-20T06:01:40.041Z,13.69
2019-05-20T06:04:09.193Z,13.92
2019-05-20T06:06:39.607Z,13.97
2019-05-20T06:09:09.095Z,14.01
2019-05-20T06:11:38.266Z,14.06
2019-05-20T06:14:07.488Z,13.96
2019-05-20T06:16:37.234Z,14.07
2019-05-20T06:19:06.594Z,14.05
2019-05-20T06:21:35.800Z,14.16
2019-05-20T06:24:05.061Z,14.09
2019-05-20T06:26:34.365Z,14.09
2019-05-20T06:29:03.565Z,14.09
2019-05-20T06:31:32.818Z,14.34
2019-05-20T06:34:03.503Z,14.40
2019-05-20T06:36:35.847Z,14.33
2019-05-20T06:39:12.698Z,14.47
2019-05-20T06:41:42.705Z,14.56
2019-05-20T06:44:11.991Z,14.68
2019-05-20T06:46:41.298Z,14.77
2019-05-20T06:49:10.490Z,14.84
2019-05-20T06:51:39.700Z,14.96
2019-05-20T06:54:08.948Z,14.89
2019-05-20T06:56:37.468Z,14.41
2019-05-20T06:59:05.898Z,14.31
2019-05-20T07:01:34.126Z,14.29
2019-05-20T07:04:02.353Z,14.53
2019-05-20T07:06:44.594Z,14.60
2019-05-20T07:09:00.603Z,14.51
2019-05-20T07:11:28.862Z,14.46
2019-05-20T07:13:57.114Z,14.48
2019-05-20T07:16:25.354Z,14.35
2019-05-20T07:18:53.649Z,14.27
2019-05-20T07:21:21.867Z,14.55
2019-05-20T07:23:52.392Z,14.64
2019-05-20T07:26:20.161Z,14.67
2019-05-20T07:28:49.356Z,14.63
2019-05-20T07:31:18.580Z,14.71
2019-05-20T07:33:47.774Z,14.90
2019-05-20T07:36:16.934Z,14.92
2019-05-20T07:38:46.154Z,15.06
2019-05-20T07:41:16.796Z,15.10
2019-05-20T07:43:46.095Z,15.21
2019-05-20T07:46:15.494Z,15.06
2019-05-20T07:48:44.878Z,14.76
2019-05-20T07:51:14.656Z,15.13
2019-05-20T07:53:44.047Z,15.42
2019-05-20T07:56:16.485Z,15.37
2019-05-20T07:58:48.655Z,15.29
2019-05-20T08:01:17.840Z,15.31
2019-05-20T08:03:47.024Z,15.42
2019-05-20T08:06:16.179Z,15.36
2019-05-20T08:08:45.379Z,15.30
2019-05-20T08:11:14.562Z,15.22
2019-05-20T08:13:43.739Z,14.76
2019-05-20T08:16:12.882Z,14.83
2019-05-20T08:18:42.087Z,14.88
2019-05-20T08:21:11.372Z,14.83
2019-05-20T08:23:40.569Z,14.85
2019-05-20T08:26:09.806Z,15.01
2019-05-20T08:28:38.981Z,14.58
2019-05-20T08:31:08.185Z,14.96
2019-05-20T08:33:37.441Z,15.13
2019-05-20T08:36:06.597Z,15.04
2019-05-20T08:38:36.974Z,14.71
2019-05-20T08:41:06.195Z,14.60
2019-05-20T08:43:35.440Z,15.06
2019-05-20T08:46:04.870Z,15.38
2019-05-20T08:48:34.157Z,15.52
2019-05-20T08:51:03.369Z,14.98
2019-05-20T08:53:32.578Z,15.30
2019-05-20T08:56:01.913Z,15.60
2019-05-20T08:58:31.177Z,15.16
2019-05-20T09:01:00.554Z,15.38
2019-05-20T09:03:30.649Z,15.53
2019-05-20T09:06:00.076Z,15.29
2019-05-20T09:08:30.861Z,15.43
2019-05-20T09:11:00.027Z,15.39
2019-05-20T09:13:30.472Z,15.34
2019-05-20T09:15:59.644Z,15.41
2019-05-20T09:21:11.563Z,15.20
2019-05-20T09:23:40.897Z,15.08
2019-05-20T09:26:10.100Z,15.42
2019-05-20T09:28:39.384Z,15.70
2019-05-20T09:31:08.709Z,15.42
2019-05-20T09:33:38.215Z,15.58
2019-05-20T09:36:07.385Z,15.31
2019-05-20T09:38:37.174Z,15.70
2019-05-20T09:41:06.491Z,15.54
2019-05-20T09:43:35.704Z,15.46
2019-05-20T09:46:07.954Z,15.77
2019-05-20T09:48:35.905Z,15.56
2019-05-20T09:51:05.368Z,15.49
2019-05-20T09:53:34.526Z,15.30
2019-05-20T09:56:03.945Z,15.59
2019-05-20T09:58:33.257Z,15.50
2019-05-20T10:01:02.456Z,15.46
2019-05-20T10:03:31.621Z,15.42
2019-05-20T10:06:00.787Z,15.87
2019-05-20T10:08:38.866Z,15.53
2019-05-20T10:11:01.488Z,15.54
2019-05-20T10:13:30.758Z,15.60
2019-05-20T10:15:59.961Z,15.63
2019-05-20T10:18:37.224Z,15.85
2019-05-20T10:21:00.072Z,15.65
2019-05-20T10:23:29.250Z,15.51
2019-05-20T10:25:58.450Z,15.61
2019-05-20T10:28:27.738Z,15.76
2019-05-20T10:30:56.934Z,15.91
2019-05-20T10:33:26.227Z,16.11
2019-05-20T10:35:55.503Z,16.02
2019-05-20T10:38:24.718Z,16.28
2019-05-20T10:40:54.023Z,16.24
2019-05-20T10:43:23.238Z,16.62
2019-05-20T10:45:52.443Z,16.28
2019-05-20T10:48:21.661Z,16.20
2019-05-20T10:50:50.884Z,16.38
2019-05-20T10:53:20.183Z,16.36
2019-05-20T10:55:49.666Z,16.64
2019-05-20T10:58:18.882Z,16.81
2019-05-20T11:01:01.686Z,16.87
2019-05-20T11:03:18.965Z,16.84
2019-05-20T11:05:48.171Z,16.62
2019-05-20T11:08:17.466Z,16.73
2019-05-20T11:10:46.661Z,16.57
2019-05-20T11:13:16.233Z,16.93
2019-05-20T11:15:45.424Z,16.71
2019-05-20T11:18:14.614Z,16.76
2019-05-20T11:20:43.832Z,17.01
2019-05-20T11:23:13.005Z,17.47
2019-05-20T11:25:42.210Z,17.83
2019-05-20T11:28:12.064Z,18.03
2019-05-20T11:30:41.464Z,18.69
2019-05-20T11:33:10.645Z,18.16
2019-05-20T11:35:39.849Z,17.69
2019-05-20T11:38:09.120Z,18.07
2019-05-20T11:40:38.304Z,17.92
2019-05-20T11:43:07.542Z,18.69
2019-05-20T11:45:36.702Z,19.14
2019-05-20T11:48:05.937Z,19.64
2019-05-20T11:50:35.157Z,19.77
2019-05-20T11:53:04.442Z,19.55
2019-05-20T11:55:33.751Z,19.92
2019-05-20T11:58:15.482Z,20.00
2019-05-20T12:00:33.941Z,19.54
2019-05-20T12:03:03.206Z,19.47
2019-05-20T12:05:32.448Z,20.04
2019-05-20T12:08:02.338Z,19.50
2019-05-20T12:10:31.591Z,18.88
2019-05-20T12:13:00.967Z,18.51
2019-05-20T12:15:30.181Z,19.15
2019-05-20T12:17:59.595Z,19.34
2019-05-20T12:20:29.014Z,19.72
2019-05-20T12:22:58.395Z,19.42
2019-05-20T12:25:27.720Z,20.47
2019-05-20T12:27:56.991Z,20.68
2019-05-20T12:30:26.395Z,19.87
2019-05-20T12:33:17.090Z,20.55
2019-05-20T12:35:26.489Z,20.23
2019-05-20T12:37:55.815Z,20.12
2019-05-20T12:40:25.031Z,20.08
2019-05-20T12:42:54.280Z,19.12
2019-05-20T12:45:23.609Z,20.13
2019-05-20T12:47:53.046Z,19.82
2019-05-20T12:50:22.588Z,20.39
2019-05-20T12:52:51.754Z,20.39
2019-05-20T12:55:21.253Z,20.90
2019-05-20T12:57:50.469Z,20.14
2019-05-20T13:00:20.387Z,20.60
2019-05-20T13:02:49.538Z,21.43
2019-05-20T13:05:18.808Z,21.34
2019-05-20T13:07:48.214Z,22.40
2019-05-20T13:10:29.317Z,21.79
2019-05-20T13:12:48.736Z,20.84
2019-05-20T13:15:18.000Z,21.73
2019-05-20T13:17:47.254Z,22.93
2019-05-20T13:20:16.502Z,21.77
2019-05-20T13:22:45.727Z,22.46
2019-05-20T13:25:15.190Z,22.01
2019-05-20T13:27:44.323Z,22.56
2019-05-20T13:30:13.801Z,22.18
2019-05-20T13:32:43.008Z,21.63
2019-05-20T13:35:12.346Z,20.80
2019-05-20T13:37:41.520Z,21.83
2019-05-20T13:40:10.927Z,22.53
2019-05-20T13:42:40.127Z,22.48
2019-05-20T13:45:10.167Z,21.78
2019-05-20T13:47:39.461Z,21.26
2019-05-20T13:50:10.606Z,21.64
2019-05-20T13:52:39.828Z,22.26
2019-05-20T13:55:10.718Z,21.40
2019-05-20T13:57:39.925Z,22.20
2019-05-20T14:00:09.456Z,23.50
2019-05-20T14:02:38.928Z,22.62
2019-05-20T14:05:08.189Z,22.93
2019-05-20T14:07:37.438Z,22.59
2019-05-20T14:10:07.010Z,21.96
2019-05-20T14:12:36.202Z,21.57
2019-05-20T14:15:05.969Z,21.71
2019-05-20T14:17:35.134Z,21.80
2019-05-20T14:20:05.641Z,20.84
2019-05-20T14:22:34.829Z,20.76
2019-05-20T14:25:04.362Z,22.04
2019-05-20T14:27:33.552Z,22.81
2019-05-20T14:30:04.266Z,22.58
2019-05-20T14:32:33.534Z,21.14
2019-05-20T14:35:02.786Z,20.93
2019-05-20T14:37:31.954Z,21.70
2019-05-20T14:40:02.331Z,22.15
2019-05-20T14:42:31.543Z,22.89
2019-05-20T14:45:00.744Z,22.00
2019-05-20T14:47:30.119Z,22.93
2019-05-20T14:49:59.329Z,23.78
2019-05-20T14:52:28.503Z,23.93
2019-05-20T14:54:57.862Z,24.61
2019-05-20T14:57:27.397Z,23.76
2019-05-20T14:59:56.815Z,23.41
2019-05-20T15:02:25.967Z,24.67
2019-05-20T15:04:56.998Z,24.42
2019-05-20T15:07:30.765Z,22.96
2019-05-20T15:09:57.196Z,23.67
2019-05-20T15:12:26.473Z,24.28
2019-05-20T15:14:55.641Z,23.76
2019-05-20T15:17:24.792Z,24.24
2019-05-20T15:19:54.034Z,23.46
2019-05-20T15:22:23.205Z,22.37
2019-05-20T15:24:52.464Z,21.55
2019-05-20T15:27:21.672Z,22.42
2019-05-20T15:29:50.860Z,22.54
2019-05-20T15:32:20.033Z,22.56
2019-05-20T15:34:49.269Z,24.19
2019-05-20T15:37:18.502Z,23.35
2019-05-20T15:39:47.725Z,23.55
2019-05-20T15:42:16.906Z,23.16
2019-05-20T15:44:46.123Z,22.75
2019-05-20T15:47:18.604Z,23.20
2019-05-20T15:49:46.346Z,22.73
2019-05-20T15:52:15.520Z,22.50
2019-05-20T15:54:44.897Z,22.64
2019-05-20T15:57:14.159Z,22.67
2019-05-20T15:59:46.299Z,22.06
2019-05-20T16:02:14.527Z,21.81
2019-05-20T16:04:43.680Z,20.75
2019-05-20T16:07:12.850Z,21.22
2019-05-20T16:09:42.072Z,21.00
2019-05-20T16:12:11.390Z,21.55
2019-05-20T16:14:40.622Z,21.43
2019-05-20T16:17:09.820Z,20.86
2019-05-20T16:19:39.046Z,20.81
2019-05-20T16:22:08.298Z,21.13
2019-05-20T16:24:37.612Z,21.12
2019-05-20T16:27:07.037Z,20.91
2019-05-20T16:29:35.300Z,20.61
2019-05-20T16:32:04.466Z,20.33
2019-05-20T16:34:32.738Z,20.04
2019-05-20T16:37:00.971Z,20.30
2019-05-20T16:39:31.101Z,20.51
2019-05-20T16:41:59.241Z,20.93
2019-05-20T16:44:27.484Z,20.59
2019-05-20T16:46:55.768Z,20.76
2019-05-20T16:49:24.017Z,20.85
2019-05-20T16:51:52.461Z,21.12
2019-05-20T16:54:20.717Z,20.71
2019-05-20T16:56:48.967Z,20.92
2019-05-20T16:59:17.369Z,20.51
2019-05-20T17:01:46.782Z,19.87
2019-05-20T17:04:15.168Z,19.75
2019-05-20T17:06:43.512Z,19.76
2019-05-20T17:09:12.723Z,20.03
2019-05-20T17:11:40.971Z,20.03
2019-05-20T17:14:10.630Z,19.52
2019-05-20T17:16:39.201Z,19.12
2019-05-20T17:19:08.749Z,19.32
2019-05-20T17:21:37.995Z,19.04
2019-05-20T17:24:07.232Z,19.19
2019-05-20T17:26:36.428Z,18.89
2019-05-20T17:29:05.639Z,18.96
2019-05-20T17:31:34.845Z,18.61
2019-05-20T17:34:04.027Z,18.70
2019-05-20T17:36:33.249Z,18.79
2019-05-20T17:39:02.514Z,18.57
2019-05-20T17:41:31.773Z,18.34
2019-05-20T17:44:01.035Z,18.74
2019-05-20T17:46:30.206Z,18.56
2019-05-20T17:48:59.458Z,18.51
2019-05-20T17:51:28.651Z,18.38
2019-05-20T17:53:57.899Z,18.23
2019-05-20T17:56:27.154Z,18.16
2019-05-20T17:58:57.458Z,18.46
2019-05-20T18:01:27.772Z,18.02
2019-05-20T18:03:57.112Z,18.14
2019-05-20T18:06:26.418Z,18.29
2019-05-20T18:08:57.302Z,18.08
2019-05-20T18:11:26.755Z,18.05
2019-05-20T18:13:56.138Z,17.83
2019-05-20T18:16:25.401Z,18.03
2019-05-20T18:18:56.585Z,17.79
2019-05-20T18:21:25.802Z,17.55
2019-05-20T18:23:55.132Z,17.13
2019-05-20T18:26:24.500Z,17.26
2019-05-20T18:28:53.856Z,17.25
2019-05-20T18:31:32.087Z,17.22
2019-05-20T18:33:54.261Z,16.99
2019-05-20T18:36:23.699Z,16.75
2019-05-20T18:38:53.078Z,16.85
2019-05-20T18:41:22.368Z,16.86
2019-05-20T18:43:51.870Z,16.88
2019-05-20T18:46:22.390Z,16.65
2019-05-20T18:48:53.631Z,16.62
2019-05-20T18:51:23.856Z,16.69
2019-05-20T18:53:53.367Z,16.58
2019-05-20T18:56:25.076Z,16.51
2019-05-20T18:58:54.314Z,16.48
2019-05-20T19:01:23.641Z,16.45
2019-05-20T19:03:54.592Z,16.32
2019-05-20T19:06:24.186Z,16.36
2019-05-20T19:08:53.468Z,16.28
2019-05-20T19:11:27.868Z,16.24
2019-05-20T19:13:57.193Z,16.01
2019-05-20T19:16:27.119Z,15.89
2019-05-20T19:18:56.609Z,15.92
2019-05-20T19:21:31.200Z,15.64
2019-05-20T19:24:00.502Z,15.54
2019-05-20T19:26:29.823Z,15.69
2019-05-20T19:28:59.536Z,15.60
2019-05-20T19:31:29.195Z,15.73
2019-05-20T19:33:58.521Z,15.46
2019-05-20T19:36:27.818Z,15.51
2019-05-20T19:38:59.442Z,15.49
2019-05-20T19:41:29.464Z,15.27
2019-05-20T19:43:59.075Z,15.16
2019-05-20T19:46:30.844Z,15.15
2019-05-20T19:49:00.118Z,14.97
2019-05-20T19:51:29.418Z,14.99
2019-05-20T19:53:59.574Z,15.02
2019-05-20T19:56:28.895Z,15.08
2019-05-20T19:58:58.154Z,14.93
2019-05-20T20:01:27.774Z,15.03
2019-05-20T20:03:57.063Z,15.00
2019-05-20T20:06:26.325Z,14.88
2019-05-20T20:08:55.651Z,14.94
2019-05-20T20:11:25.191Z,14.93
2019-05-20T20:13:54.480Z,15.01
2019-05-20T20:16:23.905Z,14.89
2019-05-20T20:18:55.422Z,14.88
2019-05-20T20:21:24.655Z,14.89
2019-05-20T20:23:54.002Z,14.86
2019-05-20T20:26:23.247Z,15.04
2019-05-20T20:28:52.630Z,14.80
2019-05-20T20:31:23.655Z,14.97
2019-05-20T20:33:53.113Z,15.03
2019-05-20T20:36:22.356Z,14.73
2019-05-20T20:38:51.596Z,14.81
2019-05-20T20:41:20.896Z,14.86
2019-05-20T20:43:50.168Z,14.74
2019-05-20T20:46:19.462Z,14.53
2019-05-20T20:48:49.847Z,14.56
2019-05-20T20:51:20.321Z,14.61
2019-05-20T20:53:49.844Z,14.46
2019-05-20T20:56:25.274Z,14.54
2019-05-20T20:58:49.973Z,14.56
2019-05-20T21:01:19.263Z,14.45
2019-05-20T21:03:48.794Z,14.49
2019-05-20T21:06:18.015Z,14.57
2019-05-20T21:08:47.283Z,14.53
2019-05-20T21:11:16.505Z,14.50
2019-05-20T21:13:45.688Z,14.35
2019-05-20T21:16:14.887Z,14.40
2019-05-20T21:18:44.146Z,14.41
2019-05-20T21:21:14.057Z,14.38
2019-05-20T21:23:43.239Z,14.33
2019-05-20T21:26:12.461Z,14.40
2019-05-20T21:28:41.695Z,14.44
2019-05-20T21:31:10.861Z,14.39
2019-05-20T21:33:40.057Z,14.28
2019-05-20T21:36:09.283Z,14.20
2019-05-20T21:38:38.456Z,14.35
2019-05-20T21:41:07.682Z,14.34
2019-05-20T21:43:38.796Z,14.29
2019-05-20T21:46:08.028Z,14.33
2019-05-20T21:48:37.266Z,14.21
2019-05-20T21:51:06.651Z,14.17
2019-05-20T21:53:35.940Z,14.11
2019-05-20T21:56:05.182Z,14.26
2019-05-20T21:58:34.350Z,14.17
2019-05-20T22:01:04.030Z,14.11
2019-05-20T22:03:33.310Z,13.96
2019-05-20T22:06:02.497Z,13.92
2019-05-20T22:08:31.694Z,13.96
2019-05-20T22:11:01.743Z,13.82
2019-05-20T22:13:31.018Z,13.57
2019-05-20T22:16:00.184Z,13.55
2019-05-20T22:18:29.502Z,13.63
2019-05-20T22:20:58.845Z,13.54
2019-05-20T22:23:48.927Z,13.45
2019-05-20T22:26:18.127Z,13.42
2019-05-20T22:28:47.440Z,13.58
2019-05-20T22:31:16.705Z,13.57
2019-05-20T22:33:45.908Z,13.48
2019-05-20T22:36:15.101Z,13.46
2019-05-20T22:38:44.374Z,13.34
2019-05-20T22:41:13.527Z,13.45
2019-05-20T22:43:42.826Z,13.49
2019-05-20T22:46:12.177Z,13.38
2019-05-20T22:48:41.347Z,13.30
2019-05-20T22:51:10.545Z,13.37
2019-05-20T22:53:39.828Z,13.34
2019-05-20T22:56:09.027Z,13.37
2019-05-20T23:01:20.375Z,13.24
2019-05-20T23:03:56.369Z,13.22
2019-05-20T23:06:20.586Z,13.36
2019-05-20T23:08:49.756Z,13.42
2019-05-20T23:11:19.034Z,13.47
2019-05-20T23:13:48.234Z,13.44
2019-05-20T23:16:17.410Z,13.35
2019-05-20T23:18:46.626Z,13.40
2019-05-20T23:21:15.848Z,13.44
2019-05-20T23:23:45.137Z,13.54
2019-05-20T23:26:14.339Z,13.53
2019-05-20T23:28:43.635Z,13.45
2019-05-20T23:31:14.526Z,13.45
2019-05-20T23:33:43.864Z,13.32
2019-05-20T23:36:13.061Z,13.49
2019-05-20T23:38:42.286Z,13.46
2019-05-20T23:41:11.633Z,13.45
2019-05-20T23:43:40.867Z,13.44
2019-05-20T23:46:10.100Z,13.61
2019-05-20T23:48:39.386Z,13.59
2019-05-20T23:51:10.389Z,13.63
2019-05-20T23:53:39.612Z,13.49
2019-05-20T23:56:08.879Z,13.52
2019-05-20T23:58:38.057Z,13.40
